createdAt,value
2022-08-09T00:00:21.326Z,6.13
2022-08-09T00:02:51.464Z,6.60
2022-08-09T00:06:18.917Z,5.87
2022-08-09T00:08:11.052Z,7.03
2022-08-09T00:10:39.687Z,6.70
2022-08-09T00:13:16.899Z,6.10
2022-08-09T00:15:58.721Z,6.70
2022-08-09T00:18:26.651Z,5.90
2022-08-09T00:20:56.060Z,5.60
2022-08-09T00:23:57.792Z,5.90
2022-08-09T00:26:11.053Z,5.77
2022-08-09T00:28:39.638Z,5.50
2022-08-09T00:31:30.432Z,5.97
2022-08-09T00:33:55.726Z,8.20
2022-08-09T00:36:29.859Z,5.97
2022-08-09T00:38:58.575Z,6.07
2022-08-09T00:44:16.063Z,6.50
2022-08-09T00:44:24.890Z,6.20
2022-08-09T00:46:57.647Z,5.60
2022-08-09T00:49:36.557Z,7.93
2022-08-09T00:52:06.121Z,5.63
2022-08-09T00:54:46.058Z,5.33
2022-08-09T00:57:13.715Z,5.57
2022-08-09T00:59:47.098Z,5.77
2022-08-09T01:02:22.660Z,7.17
2022-08-09T01:05:14.991Z,5.77
2022-08-09T01:08:09.295Z,6.10
2022-08-09T01:10:57.665Z,5.73
2022-08-09T01:13:41.938Z,6.30
2022-08-09T01:16:24.925Z,9.33
2022-08-09T01:19:01.729Z,6.03
2022-08-09T01:21:51.310Z,5.90
2022-08-09T01:24:52.171Z,6.27
2022-08-09T01:27:23.964Z,5.87
2022-08-09T01:30:01.226Z,5.80
2022-08-09T01:32:38.615Z,5.97
2022-08-09T01:35:29.052Z,6.50
2022-08-09T01:38:15.146Z,6.50
2022-08-09T01:40:52.997Z,6.70
2022-08-09T01:43:41.863Z,6.40
2022-08-09T01:46:38.752Z,6.60
2022-08-09T01:49:12.549Z,6.83
2022-08-09T01:51:52.941Z,5.97
2022-08-09T01:54:32.771Z,6.03
2022-08-09T01:57:09.346Z,6.67
2022-08-09T01:59:41.075Z,6.73
2022-08-09T02:02:22.736Z,6.90
2022-08-09T02:04:50.993Z,5.90
2022-08-09T02:08:35.282Z,6.50
2022-08-09T02:10:20.377Z,7.13
2022-08-09T02:13:01.337Z,6.00
2022-08-09T02:15:36.178Z,6.70
2022-08-09T02:18:21.930Z,7.40
2022-08-09T02:20:56.649Z,6.23
2022-08-09T02:23:42.985Z,6.20
2022-08-09T02:26:26.860Z,6.20
2022-08-09T02:29:00.702Z,6.37
2022-08-09T02:31:36.439Z,7.77
2022-08-09T02:34:38.639Z,6.73
2022-08-09T02:37:04.235Z,6.30
2022-08-09T02:39:45.333Z,6.30
2022-08-09T02:42:24.945Z,6.00
2022-08-09T02:45:01.102Z,7.67
2022-08-09T02:47:33.890Z,6.53
2022-08-09T02:50:27.668Z,7.20
2022-08-09T02:53:00.350Z,7.80
2022-08-09T02:55:46.116Z,6.73
2022-08-09T02:58:37.218Z,7.20
2022-08-09T03:01:11.167Z,7.20
2022-08-09T03:04:17.353Z,6.80
2022-08-09T03:06:31.607Z,6.23
2022-08-09T03:09:01.476Z,6.87
2022-08-09T03:12:09.836Z,6.93
2022-08-09T03:14:18.410Z,6.13
2022-08-09T03:16:48.183Z,7.13
2022-08-09T03:19:58.204Z,7.00
2022-08-09T03:22:12.529Z,6.67
2022-08-09T03:25:06.362Z,7.57
2022-08-09T03:27:48.250Z,7.47
2022-08-09T03:30:28.092Z,7.37
2022-08-09T03:33:05.585Z,6.70
2022-08-09T03:35:44.424Z,6.60
2022-08-09T03:38:30.289Z,6.73
2022-08-09T03:40:58.254Z,7.27
2022-08-09T03:43:31.591Z,9.13
2022-08-09T03:46:04.969Z,6.87
2022-08-09T03:48:53.949Z,6.83
2022-08-09T03:51:44.470Z,8.60
2022-08-09T03:54:14.773Z,6.83
2022-08-09T03:56:44.752Z,6.73
2022-08-09T03:59:20.790Z,7.00
2022-08-09T04:01:56.692Z,7.47
2022-08-09T04:04:36.053Z,8.10
2022-08-09T04:07:04.863Z,6.47
2022-08-09T04:09:48.420Z,8.47
2022-08-09T04:12:47.406Z,9.03
2022-08-09T04:15:38.768Z,7.87
2022-08-09T04:18:07.285Z,8.83
2022-08-09T04:20:34.482Z,9.23
2022-08-09T04:23:01.947Z,8.90
2022-08-09T04:25:29.501Z,8.20
2022-08-09T04:27:59.951Z,7.93
2022-08-09T04:30:31.619Z,9.40
2022-08-09T04:33:01.146Z,9.33
2022-08-09T04:35:29.372Z,9.47
2022-08-09T04:38:00.162Z,9.93
2022-08-09T04:40:48.226Z,8.93
2022-08-09T04:43:23.358Z,9.63
2022-08-09T04:45:54.417Z,9.67
2022-08-09T04:48:23.847Z,7.60
2022-08-09T04:51:00.760Z,9.50
2022-08-09T04:53:28.729Z,10.23
2022-08-09T04:55:59.795Z,9.30
2022-08-09T04:58:32.790Z,8.67
2022-08-09T05:01:02.072Z,9.73
2022-08-09T05:03:40.798Z,8.27
2022-08-09T05:06:22.108Z,9.57
2022-08-09T05:09:00.604Z,9.23
2022-08-09T05:11:32.393Z,8.80
2022-08-09T05:14:06.692Z,7.47
2022-08-09T05:16:58.506Z,9.63
2022-08-09T05:19:25.607Z,8.50
2022-08-09T05:21:55.569Z,11.93
2022-08-09T05:24:24.703Z,9.57
2022-08-09T05:26:53.089Z,9.33
2022-08-09T05:29:24.235Z,10.80
2022-08-09T05:32:00.212Z,10.07
2022-08-09T05:34:30.615Z,9.43
2022-08-09T05:37:07.064Z,9.03
2022-08-09T05:39:43.886Z,9.83
2022-08-09T05:42:17.211Z,9.53
2022-08-09T05:44:50.877Z,9.57
2022-08-09T05:47:23.724Z,9.33
2022-08-09T05:50:30.150Z,10.63
2022-08-09T05:52:44.514Z,12.60
2022-08-09T05:55:21.829Z,10.87
2022-08-09T05:57:56.442Z,8.87
2022-08-09T06:00:33.115Z,9.20
2022-08-09T06:03:03.470Z,10.00
2022-08-09T06:05:57.469Z,9.47
2022-08-09T06:08:24.359Z,9.00
2022-08-09T06:10:57.064Z,8.60
2022-08-09T06:13:28.255Z,8.87
2022-08-09T06:15:55.929Z,9.03
2022-08-09T06:18:25.406Z,8.50
2022-08-09T06:20:57.889Z,8.93
2022-08-09T06:23:57.715Z,8.60
2022-08-09T06:26:22.159Z,10.40
2022-08-09T06:28:59.443Z,10.53
2022-08-09T06:31:31.551Z,11.00
2022-08-09T06:34:06.663Z,10.37
2022-08-09T06:36:34.508Z,10.90
2022-08-09T06:39:02.662Z,16.50
2022-08-09T06:41:55.861Z,10.57
2022-08-09T06:44:24.175Z,9.70
2022-08-09T06:46:55.490Z,10.57
2022-08-09T06:49:44.918Z,8.83
2022-08-09T06:52:12.076Z,9.23
2022-08-09T06:54:42.588Z,9.27
2022-08-09T06:57:11.971Z,11.87
2022-08-09T07:00:50.762Z,13.57
2022-08-09T07:02:29.506Z,12.83
2022-08-09T07:04:59.848Z,10.37
2022-08-09T07:07:58.410Z,9.13
2022-08-09T07:10:22.554Z,8.07
2022-08-09T07:12:57.915Z,8.47
2022-08-09T07:16:35.324Z,10.83
2022-08-09T07:18:14.990Z,8.63
2022-08-09T07:20:43.756Z,8.93
2022-08-09T07:23:18.557Z,7.60
2022-08-09T07:25:52.276Z,11.87
2022-08-09T07:28:28.318Z,11.47
2022-08-09T07:30:55.811Z,10.70
2022-08-09T07:33:23.209Z,9.53
2022-08-09T07:35:53.331Z,9.30
2022-08-09T07:38:23.438Z,9.80
2022-08-09T07:41:09.806Z,10.17
2022-08-09T07:43:49.540Z,8.03
2022-08-09T07:46:23.172Z,11.47
2022-08-09T07:48:59.616Z,11.40
2022-08-09T07:52:05.973Z,7.70
2022-08-09T07:54:19.247Z,8.40
2022-08-09T07:56:55.366Z,8.23
2022-08-09T07:59:33.661Z,8.53
2022-08-09T08:02:09.547Z,9.47
2022-08-09T08:04:37.313Z,7.70
2022-08-09T08:07:14.716Z,8.33
2022-08-09T08:10:05.604Z,8.20
2022-08-09T08:12:45.229Z,7.03
2022-08-09T08:15:18.296Z,7.70
2022-08-09T08:17:53.600Z,9.23
2022-08-09T08:20:30.329Z,7.63
2022-08-09T08:23:16.683Z,8.03
2022-08-09T08:25:48.372Z,8.07
2022-08-09T08:28:25.662Z,7.97
2022-08-09T08:31:08.853Z,8.60
2022-08-09T08:33:53.772Z,8.63
2022-08-09T08:36:28.871Z,10.63
2022-08-09T08:38:56.464Z,7.93
2022-08-09T08:41:24.533Z,7.83
2022-08-09T08:44:10.019Z,7.80
2022-08-09T08:47:02.689Z,8.50
2022-08-09T08:49:38.920Z,8.30
2022-08-09T08:52:41.479Z,8.40
2022-08-09T08:55:05.838Z,7.87
2022-08-09T08:57:34.658Z,8.30
2022-08-09T09:00:08.197Z,7.43
2022-08-09T09:02:52.638Z,8.20
2022-08-09T09:05:33.182Z,7.97
2022-08-09T09:08:30.277Z,7.50
2022-08-09T09:11:03.997Z,8.23
2022-08-09T09:13:50.188Z,8.60
2022-08-09T09:16:30.476Z,8.00
2022-08-09T09:22:15.780Z,7.87
2022-08-09T09:24:50.361Z,7.50
2022-08-09T09:28:04.364Z,7.50
2022-08-09T09:30:40.128Z,8.47
2022-08-09T09:33:15.626Z,7.70
2022-08-09T09:36:20.056Z,7.03
2022-08-09T09:38:56.681Z,7.30
2022-08-09T09:41:24.171Z,7.77
2022-08-09T09:44:12.793Z,8.03
2022-08-09T09:46:52.192Z,7.67
2022-08-09T09:49:49.699Z,7.40
2022-08-09T09:52:16.746Z,7.20
2022-08-09T09:55:16.745Z,7.40
2022-08-09T09:58:17.073Z,7.83
2022-08-09T10:00:58.569Z,7.50
2022-08-09T10:03:44.289Z,7.10
2022-08-09T10:06:13.066Z,7.10
2022-08-09T10:08:54.532Z,7.53
2022-08-09T10:12:01.376Z,6.50
2022-08-09T10:14:30.645Z,7.13
2022-08-09T10:17:24.062Z,7.50
2022-08-09T10:19:59.186Z,6.80
2022-08-09T10:22:45.535Z,6.53
2022-08-09T10:25:14.285Z,6.40
2022-08-09T10:27:56.730Z,6.57
2022-08-09T10:34:04.229Z,7.07
2022-08-09T10:36:05.375Z,7.63
2022-08-09T10:38:57.176Z,7.13
2022-08-09T10:41:27.791Z,6.80
2022-08-09T10:44:01.319Z,7.07
2022-08-09T10:47:00.822Z,6.50
2022-08-09T10:50:01.472Z,7.30
2022-08-09T10:53:00.847Z,6.40
2022-08-09T10:55:35.740Z,7.50
2022-08-09T10:58:37.670Z,6.57
2022-08-09T11:03:02.044Z,6.43
2022-08-09T11:04:28.264Z,6.37
2022-08-09T11:07:03.419Z,5.77
2022-08-09T11:09:48.038Z,5.73
2022-08-09T11:12:29.738Z,5.70
2022-08-09T11:15:02.908Z,5.03
2022-08-09T11:17:34.239Z,5.70
2022-08-09T11:20:22.448Z,5.53
2022-08-09T11:22:56.655Z,5.23
2022-08-09T11:25:44.611Z,5.97
2022-08-09T11:28:34.318Z,5.70
2022-08-09T11:31:36.474Z,5.00
2022-08-09T11:34:13.551Z,5.30
2022-08-09T11:36:44.346Z,5.70
2022-08-09T11:39:11.559Z,4.57
2022-08-09T11:41:40.667Z,5.97
2022-08-09T11:44:08.778Z,4.83
2022-08-09T11:46:57.262Z,5.53
2022-08-09T11:50:55.162Z,22.20
2022-08-09T11:53:58.950Z,8.20
2022-08-09T11:55:53.782Z,6.30
2022-08-09T11:58:33.209Z,4.77
2022-08-09T12:01:37.490Z,5.03
2022-08-09T12:04:05.402Z,5.33
2022-08-09T12:06:35.328Z,4.90
2022-08-09T12:09:19.771Z,5.30
2022-08-09T12:12:04.060Z,5.23
2022-08-09T12:14:40.776Z,4.83
2022-08-09T12:17:27.624Z,5.80
2022-08-09T12:20:03.816Z,4.97
2022-08-09T12:22:31.556Z,5.60
2022-08-09T12:25:17.822Z,5.27
2022-08-09T12:29:00.061Z,5.50
2022-08-09T12:31:11.334Z,4.77
2022-08-09T12:34:00.812Z,4.67
2022-08-09T12:36:33.479Z,3.77
2022-08-09T12:39:02.265Z,4.43
2022-08-09T12:41:39.630Z,4.40
2022-08-09T12:44:09.973Z,4.30
2022-08-09T12:46:49.283Z,4.33
2022-08-09T12:49:17.677Z,4.07
2022-08-09T12:52:02.214Z,4.40
2022-08-09T12:55:00.578Z,4.27
2022-08-09T12:57:46.876Z,4.13
2022-08-09T13:00:34.426Z,4.23
2022-08-09T13:03:04.955Z,4.93
2022-08-09T13:05:52.613Z,3.97
2022-08-09T13:08:40.395Z,3.80
2022-08-09T13:11:23.315Z,4.50
2022-08-09T13:14:42.858Z,4.90
2022-08-09T13:16:59.147Z,4.40
2022-08-09T13:20:09.799Z,5.20
2022-08-09T13:22:37.985Z,5.17
2022-08-09T13:25:14.276Z,4.47
2022-08-09T13:27:48.885Z,3.70
2022-08-09T13:31:11.143Z,4.33
2022-08-09T13:33:24.020Z,3.63
2022-08-09T13:36:39.656Z,4.67
2022-08-09T13:38:55.595Z,4.27
2022-08-09T13:41:51.234Z,5.97
2022-08-09T13:44:16.819Z,4.70
2022-08-09T13:47:29.478Z,4.50
2022-08-09T13:49:56.065Z,3.90
2022-08-09T13:52:23.684Z,4.50
2022-08-09T13:54:58.965Z,3.80
2022-08-09T13:57:37.075Z,4.13
2022-08-09T14:00:15.556Z,3.90
2022-08-09T14:03:03.939Z,4.83
2022-08-09T14:05:56.503Z,3.80
2022-08-09T14:08:23.040Z,3.87
2022-08-09T14:10:52.937Z,4.70
2022-08-09T14:13:27.921Z,5.20
2022-08-09T14:16:19.115Z,8.27
2022-08-09T14:18:50.274Z,17.67
2022-08-09T14:21:24.035Z,15.70
2022-08-09T14:23:56.564Z,6.50
2022-08-09T14:26:31.982Z,4.40
2022-08-09T14:29:08.220Z,3.90
2022-08-09T14:31:53.634Z,4.03
2022-08-09T14:34:31.373Z,4.13
2022-08-09T14:37:07.478Z,4.33
2022-08-09T14:39:45.373Z,4.37
2022-08-09T14:42:30.204Z,4.33
2022-08-09T14:46:39.340Z,4.27
2022-08-09T14:48:00.186Z,4.10
2022-08-09T14:50:34.213Z,4.20
2022-08-09T14:53:11.503Z,4.53
2022-08-09T14:55:47.950Z,4.70
2022-08-09T14:58:18.289Z,4.13
2022-08-09T15:00:48.545Z,4.37
2022-08-09T15:03:20.544Z,4.33
2022-08-09T15:05:52.630Z,4.30
2022-08-09T15:08:24.522Z,3.67
2022-08-09T15:11:01.372Z,3.47
2022-08-09T15:13:48.634Z,4.20
2022-08-09T15:16:19.587Z,4.07
2022-08-09T15:18:48.437Z,4.37
2022-08-09T15:21:58.348Z,3.80
2022-08-09T15:24:13.960Z,4.30
2022-08-09T15:26:46.749Z,3.70
2022-08-09T15:30:57.010Z,4.40
2022-08-09T15:32:01.442Z,4.13
2022-08-09T15:34:33.930Z,3.87
2022-08-09T15:37:23.939Z,4.13
2022-08-09T15:39:54.921Z,5.70
2022-08-09T15:42:22.349Z,3.87
2022-08-09T15:44:50.465Z,4.63
2022-08-09T15:47:23.528Z,4.50
2022-08-09T15:50:04.655Z,4.80
2022-08-09T15:52:39.387Z,4.53
2022-08-09T15:55:22.165Z,4.53
2022-08-09T15:57:51.467Z,4.73
2022-08-09T16:00:25.346Z,4.13
2022-08-09T16:02:56.554Z,4.30
2022-08-09T16:05:47.214Z,4.63
2022-08-09T16:08:29.795Z,4.50
2022-08-09T16:10:57.320Z,5.10
2022-08-09T16:14:02.896Z,4.43
2022-08-09T16:16:17.374Z,3.97
2022-08-09T16:18:45.799Z,4.27
2022-08-09T16:21:17.186Z,3.93
2022-08-09T16:23:55.468Z,3.73
2022-08-09T16:26:34.745Z,4.50
2022-08-09T16:29:11.419Z,4.80
2022-08-09T16:32:18.160Z,4.17
2022-08-09T16:34:54.846Z,3.70
2022-08-09T16:37:56.021Z,5.23
2022-08-09T16:40:10.515Z,3.83
2022-08-09T16:42:39.167Z,3.97
2022-08-09T16:45:18.676Z,3.63
2022-08-09T16:48:40.922Z,4.23
2022-08-09T16:50:38.641Z,4.63
2022-08-09T16:53:06.333Z,4.70
2022-08-09T16:55:58.513Z,4.00
2022-08-09T16:58:21.185Z,3.80
2022-08-09T17:00:49.030Z,3.57
2022-08-09T17:03:21.338Z,3.70
2022-08-09T17:06:08.356Z,4.63
2022-08-09T17:09:02.907Z,3.80
2022-08-09T17:11:40.871Z,4.00
2022-08-09T17:14:25.821Z,3.83
2022-08-09T17:17:02.294Z,3.63
2022-08-09T17:20:05.147Z,4.37
2022-08-09T17:22:24.640Z,3.90
2022-08-09T17:25:03.413Z,4.80
2022-08-09T17:27:34.943Z,3.53
2022-08-09T17:30:12.983Z,3.77
2022-08-09T17:32:46.484Z,4.83
2022-08-09T17:35:14.549Z,3.87
2022-08-09T17:38:11.838Z,3.30
2022-08-09T17:40:34.547Z,3.90
2022-08-09T17:43:33.006Z,4.10
2022-08-09T17:46:03.040Z,4.13
2022-08-09T17:48:31.569Z,3.53
2022-08-09T17:50:59.377Z,4.20
2022-08-09T17:53:43.207Z,3.90
2022-08-09T17:56:18.324Z,11.73
2022-08-09T17:58:45.457Z,4.27
2022-08-09T18:01:15.557Z,3.20
2022-08-09T18:03:51.448Z,4.17
2022-08-09T18:06:31.219Z,4.00
2022-08-09T18:09:05.424Z,4.10
2022-08-09T18:11:46.940Z,3.97
2022-08-09T18:14:23.524Z,19.67
2022-08-09T18:16:55.765Z,11.80
2022-08-09T18:20:59.838Z,19.67
2022-08-09T18:22:16.887Z,7.03
2022-08-09T18:24:46.378Z,5.13
2022-08-09T18:27:42.136Z,5.17
2022-08-09T18:30:35.986Z,4.33
2022-08-09T18:32:54.239Z,5.80
2022-08-09T18:35:56.247Z,4.93
2022-08-09T18:38:11.784Z,4.13
2022-08-09T18:40:40.544Z,3.80
2022-08-09T18:43:08.697Z,4.67
2022-08-09T18:46:46.643Z,4.27
2022-08-09T18:48:22.888Z,3.50
2022-08-09T18:50:58.368Z,5.23
2022-08-09T18:53:28.037Z,5.23
2022-08-09T18:56:15.586Z,5.17
2022-08-09T18:58:42.974Z,4.17
2022-08-09T19:01:12.159Z,5.10
2022-08-09T19:04:01.689Z,7.00
2022-08-09T19:06:27.943Z,22.87
2022-08-09T19:09:03.172Z,21.93
2022-08-09T19:11:37.674Z,14.50
2022-08-09T19:14:07.007Z,5.67
2022-08-09T19:16:36.640Z,5.67
2022-08-09T19:19:26.197Z,4.53
2022-08-09T19:22:04.932Z,3.90
2022-08-09T19:25:04.184Z,4.73
2022-08-09T19:27:22.469Z,5.30
2022-08-09T19:30:22.146Z,4.00
2022-08-09T19:32:37.369Z,3.93
2022-08-09T19:35:05.708Z,4.73
2022-08-09T19:37:54.438Z,4.60
2022-08-09T19:40:21.150Z,4.00
2022-08-09T19:42:49.585Z,5.70
2022-08-09T19:45:17.836Z,3.80
2022-08-09T19:47:45.786Z,3.80
2022-08-09T19:50:48.967Z,4.30
2022-08-09T19:53:02.423Z,4.80
2022-08-09T19:56:02.973Z,4.77
2022-08-09T19:58:30.082Z,4.20
2022-08-09T20:00:58.297Z,4.63
2022-08-09T20:04:23.696Z,3.90
2022-08-09T20:06:23.440Z,4.30
2022-08-09T20:08:56.625Z,4.60
2022-08-09T20:11:43.409Z,4.40
2022-08-09T20:14:16.404Z,4.00
2022-08-09T20:16:53.920Z,4.27
2022-08-09T20:19:46.371Z,4.20
2022-08-09T20:22:10.189Z,4.50
2022-08-09T20:24:41.943Z,4.37
2022-08-09T20:27:09.102Z,4.00
2022-08-09T20:29:39.701Z,4.00
2022-08-09T20:32:29.907Z,4.33
2022-08-09T20:34:56.994Z,6.43
2022-08-09T20:37:24.851Z,4.80
2022-08-09T20:40:14.737Z,4.77
2022-08-09T20:42:38.904Z,5.77
2022-08-09T20:45:56.867Z,5.60
2022-08-09T20:47:58.195Z,5.10
2022-08-09T20:50:47.036Z,4.63
2022-08-09T20:53:35.756Z,5.03
2022-08-09T20:56:02.003Z,5.00
2022-08-09T20:58:32.908Z,6.40
2022-08-09T21:01:33.718Z,4.83
2022-08-09T21:05:49.070Z,4.53
2022-08-09T21:06:41.659Z,4.30
2022-08-09T21:09:13.608Z,4.20
2022-08-09T21:14:30.901Z,4.47
2022-08-09T21:17:00.352Z,4.50
2022-08-09T21:20:18.551Z,4.93
2022-08-09T21:22:37.740Z,4.93
2022-08-09T21:25:21.132Z,4.30
2022-08-09T21:28:00.437Z,4.57
2022-08-09T21:30:27.457Z,4.50
2022-08-09T21:32:54.452Z,5.07
2022-08-09T21:35:21.945Z,4.60
2022-08-09T21:37:59.057Z,4.67
2022-08-09T21:40:30.247Z,5.67
2022-08-09T21:43:04.134Z,4.50
2022-08-09T21:45:38.858Z,5.00
2022-08-09T21:48:07.722Z,5.50
2022-08-09T21:50:38.602Z,4.70
2022-08-09T21:53:15.750Z,4.63
2022-08-09T21:55:54.943Z,4.70
2022-08-09T21:58:29.214Z,5.17
2022-08-09T22:00:58.290Z,4.50
2022-08-09T22:03:26.098Z,5.23
2022-08-09T22:05:54.381Z,4.87
2022-08-09T22:08:25.509Z,4.40
2022-08-09T22:11:00.526Z,5.20
2022-08-09T22:13:43.330Z,4.70
2022-08-09T22:16:11.815Z,4.90
2022-08-09T22:18:53.544Z,4.40
2022-08-09T22:21:50.178Z,4.70
2022-08-09T22:24:16.904Z,4.33
2022-08-09T22:26:51.471Z,6.40
2022-08-09T22:29:24.110Z,6.13
2022-08-09T22:31:56.877Z,4.83
2022-08-09T22:34:26.850Z,4.30
2022-08-09T22:36:56.262Z,4.67
2022-08-09T22:39:56.329Z,4.77
2022-08-09T22:42:16.359Z,4.67
2022-08-09T22:45:00.233Z,5.40
2022-08-09T22:48:10.181Z,4.97
2022-08-09T22:50:25.397Z,5.93
2022-08-09T22:52:54.869Z,4.70
2022-08-09T22:55:39.329Z,4.63
2022-08-09T22:58:30.600Z,4.60
2022-08-09T23:01:05.551Z,7.03
2022-08-09T23:04:03.972Z,4.77
2022-08-09T23:06:32.811Z,4.83
2022-08-09T23:09:02.247Z,4.60
2022-08-09T23:11:29.173Z,5.00
2022-08-09T23:13:56.127Z,4.87
2022-08-09T23:16:23.598Z,5.13
2022-08-09T23:18:50.577Z,4.07
2022-08-09T23:21:25.995Z,5.27
2022-08-09T23:24:05.165Z,5.40
2022-08-09T23:26:33.003Z,5.67
2022-08-09T23:28:59.974Z,4.70
2022-08-09T23:31:26.959Z,4.33
2022-08-09T23:33:53.923Z,4.77
2022-08-09T23:36:20.839Z,5.13
2022-08-09T23:38:48.765Z,5.27
2022-08-09T23:41:28.739Z,4.40
2022-08-09T23:44:01.661Z,6.03
2022-08-09T23:46:30.435Z,4.80
2022-08-09T23:48:59.101Z,9.10
2022-08-09T23:51:27.415Z,5.20
2022-08-09T23:54:01.881Z,4.50
2022-08-09T23:56:53.692Z,5.03
2022-08-09T23:59:18.431Z,5.20
